sensor_id;sensor_type;location;lat;lon;timestamp;P1;durP1;ratioP1;P2;durP2;ratioP2
29938;SDS011;16799;50.844;5.304;2023-11-21T00:30:09;60.50;;;24.27;;
29938;SDS011;16799;50.844;5.304;2023-11-21T00:32:36;45.07;;;22.03;;
29938;SDS011;16799;50.844;5.304;2023-11-21T00:35:02;47.23;;;22.30;;
29938;SDS011;16799;50.844;5.304;2023-11-21T00:37:28;52.40;;;23.70;;
29938;SDS011;16799;50.844;5.304;2023-11-21T00:39:54;51.87;;;21.67;;
29938;SDS011;16799;50.844;5.304;2023-11-21T00:42:19;57.00;;;22.07;;
29938;SDS011;16799;50.844;5.304;2023-11-21T00:44:46;51.00;;;22.40;;
29938;SDS011;16799;50.844;5.304;2023-11-21T00:47:12;56.87;;;23.80;;
29938;SDS011;16799;50.844;5.304;2023-11-21T00:49:37;70.73;;;26.07;;
29938;SDS011;16799;50.844;5.304;2023-11-21T00:52:04;67.53;;;25.37;;
29938;SDS011;16799;50.844;5.304;2023-11-21T00:54:30;53.77;;;22.97;;
29938;SDS011;16799;50.844;5.304;2023-11-21T00:56:55;55.43;;;23.80;;
29938;SDS011;16799;50.844;5.304;2023-11-21T00:59:21;54.80;;;25.23;;
29938;SDS011;16799;50.844;5.304;2023-11-21T01:01:48;74.60;;;23.83;;
29938;SDS011;16799;50.844;5.304;2023-11-21T01:04:14;71.77;;;24.83;;
29938;SDS011;16799;50.844;5.304;2023-11-21T01:06:39;57.20;;;24.80;;
29938;SDS011;16799;50.844;5.304;2023-11-21T01:09:05;66.50;;;25.60;;
29938;SDS011;16799;50.844;5.304;2023-11-21T01:11:36;86.53;;;27.17;;
29938;SDS011;16799;50.844;5.304;2023-11-21T01:14:03;83.30;;;29.33;;
29938;SDS011;16799;50.844;5.304;2023-11-21T01:16:29;87.07;;;31.43;;
29938;SDS011;16799;50.844;5.304;2023-11-21T01:18:57;88.43;;;32.40;;
29938;SDS011;16799;50.844;5.304;2023-11-21T01:21:24;85.93;;;28.20;;
29938;SDS011;16799;50.844;5.304;2023-11-21T01:23:50;96.00;;;29.37;;
29938;SDS011;16799;50.844;5.304;2023-11-21T01:26:15;94.33;;;31.17;;
29938;SDS011;16799;50.844;5.304;2023-11-21T01:28:41;114.57;;;31.23;;
29938;SDS011;16799;50.844;5.304;2023-11-21T01:31:07;84.77;;;31.03;;
29938;SDS011;16799;50.844;5.304;2023-11-21T01:33:32;78.30;;;31.03;;
29938;SDS011;16799;50.844;5.304;2023-11-21T01:35:58;89.80;;;29.17;;
29938;SDS011;16799;50.844;5.304;2023-11-21T01:38:24;92.87;;;31.40;;
29938;SDS011;16799;50.844;5.304;2023-11-21T01:40:50;96.00;;;29.67;;
29938;SDS011;16799;50.844;5.304;2023-11-21T01:43:16;85.27;;;31.27;;
29938;SDS011;16799;50.844;5.304;2023-11-21T01:45:42;101.90;;;31.03;;
29938;SDS011;16799;50.844;5.304;2023-11-21T01:48:08;105.60;;;32.97;;
29938;SDS011;16799;50.844;5.304;2023-11-21T01:50:33;101.40;;;31.80;;
29938;SDS011;16799;50.844;5.304;2023-11-21T01:52:59;90.67;;;33.00;;
29938;SDS011;16799;50.844;5.304;2023-11-21T01:55:26;87.50;;;33.70;;
29938;SDS011;16799;50.844;5.304;2023-11-21T01:57:53;85.90;;;32.37;;
29938;SDS011;16799;50.844;5.304;2023-11-21T02:00:19;96.23;;;34.00;;
29938;SDS011;16799;50.844;5.304;2023-11-21T02:02:45;120.83;;;35.07;;
29938;SDS011;16799;50.844;5.304;2023-11-21T02:05:16;103.00;;;31.90;;
29938;SDS011;16799;50.844;5.304;2023-11-21T02:07:46;114.63;;;32.57;;
29938;SDS011;16799;50.844;5.304;2023-11-21T02:10:17;96.77;;;31.83;;
29938;SDS011;16799;50.844;5.304;2023-11-21T02:12:47;84.30;;;31.07;;
29938;SDS011;16799;50.844;5.304;2023-11-21T02:15:15;93.30;;;30.17;;
29938;SDS011;16799;50.844;5.304;2023-11-21T02:17:45;95.30;;;31.90;;
29938;SDS011;16799;50.844;5.304;2023-11-21T02:20:19;96.63;;;31.90;;
29938;SDS011;16799;50.844;5.304;2023-11-21T02:22:48;103.33;;;32.27;;
29938;SDS011;16799;50.844;5.304;2023-11-21T02:25:26;108.43;;;33.40;;
29938;SDS011;16799;50.844;5.304;2023-11-21T02:27:54;123.40;;;35.10;;
29938;SDS011;16799;50.844;5.304;2023-11-21T02:30:20;131.10;;;37.90;;
29938;SDS011;16799;50.844;5.304;2023-11-21T02:32:49;113.40;;;36.57;;
29938;SDS011;16799;50.844;5.304;2023-11-21T02:35:17;118.37;;;36.07;;
29938;SDS011;16799;50.844;5.304;2023-11-21T02:37:46;92.23;;;33.27;;
29938;SDS011;16799;50.844;5.304;2023-11-21T02:40:12;141.33;;;39.30;;
29938;SDS011;16799;50.844;5.304;2023-11-21T02:42:38;128.67;;;38.97;;
29938;SDS011;16799;50.844;5.304;2023-11-21T02:45:05;119.07;;;39.60;;
29938;SDS011;16799;50.844;5.304;2023-11-21T02:47:32;92.70;;;34.70;;
29938;SDS011;16799;50.844;5.304;2023-11-21T02:49:58;124.07;;;38.83;;
29938;SDS011;16799;50.844;5.304;2023-11-21T02:52:24;126.77;;;39.70;;
29938;SDS011;16799;50.844;5.304;2023-11-21T02:54:50;120.07;;;36.90;;
29938;SDS011;16799;50.844;5.304;2023-11-21T02:57:16;110.67;;;36.07;;
29938;SDS011;16799;50.844;5.304;2023-11-21T02:59:42;111.10;;;35.33;;
29938;SDS011;16799;50.844;5.304;2023-11-21T03:02:07;101.70;;;32.83;;
29938;SDS011;16799;50.844;5.304;2023-11-21T03:04:33;107.40;;;36.93;;
29938;SDS011;16799;50.844;5.304;2023-11-21T03:07:00;111.33;;;36.90;;
29938;SDS011;16799;50.844;5.304;2023-11-21T03:09:25;111.97;;;36.53;;
29938;SDS011;16799;50.844;5.304;2023-11-21T03:11:55;109.30;;;33.70;;
29938;SDS011;16799;50.844;5.304;2023-11-21T03:14:21;117.17;;;39.83;;
29938;SDS011;16799;50.844;5.304;2023-11-21T03:16:47;131.73;;;41.17;;
29938;SDS011;16799;50.844;5.304;2023-11-21T03:19:14;106.13;;;38.40;;
29938;SDS011;16799;50.844;5.304;2023-11-21T03:21:40;106.03;;;36.93;;
29938;SDS011;16799;50.844;5.304;2023-11-21T03:24:06;130.23;;;39.97;;
29938;SDS011;16799;50.844;5.304;2023-11-21T03:26:32;114.43;;;39.03;;
29938;SDS011;16799;50.844;5.304;2023-11-21T03:28:58;126.90;;;39.00;;
29938;SDS011;16799;50.844;5.304;2023-11-21T03:31:23;125.67;;;38.63;;
29938;SDS011;16799;50.844;5.304;2023-11-21T03:33:49;117.10;;;35.60;;
29938;SDS011;16799;50.844;5.304;2023-11-21T03:36:15;151.37;;;42.00;;
29938;SDS011;16799;50.844;5.304;2023-11-21T03:38:41;111.40;;;38.27;;
29938;SDS011;16799;50.844;5.304;2023-11-21T03:41:07;131.87;;;37.43;;
29938;SDS011;16799;50.844;5.304;2023-11-21T03:43:36;119.60;;;36.33;;
29938;SDS011;16799;50.844;5.304;2023-11-21T03:46:02;120.93;;;37.30;;
29938;SDS011;16799;50.844;5.304;2023-11-21T03:48:28;116.53;;;40.43;;
29938;SDS011;16799;50.844;5.304;2023-11-21T03:50:54;117.67;;;39.37;;
29938;SDS011;16799;50.844;5.304;2023-11-21T03:53:20;128.97;;;42.10;;
29938;SDS011;16799;50.844;5.304;2023-11-21T03:55:45;106.33;;;35.10;;
29938;SDS011;16799;50.844;5.304;2023-11-21T03:58:11;136.37;;;37.10;;
29938;SDS011;16799;50.844;5.304;2023-11-21T04:00:37;129.17;;;35.70;;
29938;SDS011;16799;50.844;5.304;2023-11-21T04:03:03;121.80;;;36.80;;
29938;SDS011;16799;50.844;5.304;2023-11-21T04:05:29;121.90;;;39.97;;
29938;SDS011;16799;50.844;5.304;2023-11-21T04:07:56;111.93;;;37.97;;
29938;SDS011;16799;50.844;5.304;2023-11-21T04:10:21;119.37;;;38.17;;
29938;SDS011;16799;50.844;5.304;2023-11-21T04:12:47;107.73;;;36.97;;
29938;SDS011;16799;50.844;5.304;2023-11-21T04:15:13;116.20;;;38.37;;
29938;SDS011;16799;50.844;5.304;2023-11-21T04:17:39;121.53;;;37.27;;
29938;SDS011;16799;50.844;5.304;2023-11-21T04:20:06;115.60;;;37.00;;
29938;SDS011;16799;50.844;5.304;2023-11-21T04:22:36;130.73;;;39.13;;
29938;SDS011;16799;50.844;5.304;2023-11-21T04:25:07;142.33;;;39.13;;
29938;SDS011;16799;50.844;5.304;2023-11-21T04:27:34;114.20;;;37.93;;
29938;SDS011;16799;50.844;5.304;2023-11-21T04:30:00;105.80;;;35.63;;
29938;SDS011;16799;50.844;5.304;2023-11-21T04:32:25;105.47;;;38.27;;
29938;SDS011;16799;50.844;5.304;2023-11-21T04:34:51;97.57;;;37.43;;
29938;SDS011;16799;50.844;5.304;2023-11-21T04:37:16;108.73;;;34.23;;
29938;SDS011;16799;50.844;5.304;2023-11-21T04:39:42;107.67;;;37.80;;
29938;SDS011;16799;50.844;5.304;2023-11-21T04:42:08;106.27;;;35.37;;
29938;SDS011;16799;50.844;5.304;2023-11-21T04:44:33;113.67;;;35.60;;
29938;SDS011;16799;50.844;5.304;2023-11-21T04:46:59;107.30;;;36.60;;
29938;SDS011;16799;50.844;5.304;2023-11-21T04:49:25;110.20;;;37.27;;
29938;SDS011;16799;50.844;5.304;2023-11-21T04:51:50;126.77;;;38.00;;
29938;SDS011;16799;50.844;5.304;2023-11-21T04:54:16;121.77;;;36.97;;
29938;SDS011;16799;50.844;5.304;2023-11-21T04:56:42;126.40;;;39.93;;
29938;SDS011;16799;50.844;5.304;2023-11-21T04:59:08;112.33;;;34.60;;
29938;SDS011;16799;50.844;5.304;2023-11-21T05:01:34;109.23;;;35.07;;
29938;SDS011;16799;50.844;5.304;2023-11-21T05:04:01;116.77;;;34.83;;
29938;SDS011;16799;50.844;5.304;2023-11-21T05:06:27;107.63;;;32.73;;
29938;SDS011;16799;50.844;5.304;2023-11-21T05:08:53;111.47;;;37.07;;
29938;SDS011;16799;50.844;5.304;2023-11-21T05:11:28;115.63;;;34.03;;
29938;SDS011;16799;50.844;5.304;2023-11-21T05:13:57;106.70;;;36.07;;
29938;SDS011;16799;50.844;5.304;2023-11-21T05:16:25;126.90;;;37.07;;
29938;SDS011;16799;50.844;5.304;2023-11-21T05:18:52;119.00;;;35.57;;
29938;SDS011;16799;50.844;5.304;2023-11-21T05:21:18;111.73;;;34.13;;
29938;SDS011;16799;50.844;5.304;2023-11-21T05:23:45;128.30;;;38.00;;
29938;SDS011;16799;50.844;5.304;2023-11-21T05:26:11;144.37;;;40.40;;
29938;SDS011;16799;50.844;5.304;2023-11-21T05:28:37;102.07;;;34.97;;
29938;SDS011;16799;50.844;5.304;2023-11-21T05:31:02;126.10;;;37.37;;
29938;SDS011;16799;50.844;5.304;2023-11-21T05:33:28;130.00;;;35.07;;
29938;SDS011;16799;50.844;5.304;2023-11-21T05:35:53;101.90;;;33.93;;
29938;SDS011;16799;50.844;5.304;2023-11-21T05:38:19;86.87;;;33.00;;
29938;SDS011;16799;50.844;5.304;2023-11-21T05:40:47;118.83;;;36.90;;
29938;SDS011;16799;50.844;5.304;2023-11-21T05:43:12;115.37;;;35.70;;
29938;SDS011;16799;50.844;5.304;2023-11-21T05:45:38;116.37;;;34.90;;
29938;SDS011;16799;50.844;5.304;2023-11-21T05:48:04;131.70;;;33.90;;
29938;SDS011;16799;50.844;5.304;2023-11-21T05:50:31;114.80;;;32.03;;
29938;SDS011;16799;50.844;5.304;2023-11-21T05:52:57;139.37;;;37.90;;
29938;SDS011;16799;50.844;5.304;2023-11-21T05:55:25;110.37;;;34.30;;
29938;SDS011;16799;50.844;5.304;2023-11-21T05:57:51;121.87;;;36.10;;
29938;SDS011;16799;50.844;5.304;2023-11-21T06:00:17;118.80;;;38.60;;
29938;SDS011;16799;50.844;5.304;2023-11-21T06:02:50;288.37;;;44.90;;
29938;SDS011;16799;50.844;5.304;2023-11-21T06:05:17;183.77;;;38.53;;
29938;SDS011;16799;50.844;5.304;2023-11-21T06:07:44;111.60;;;34.00;;
29938;SDS011;16799;50.844;5.304;2023-11-21T06:10:10;126.23;;;33.77;;
29938;SDS011;16799;50.844;5.304;2023-11-21T06:12:39;140.80;;;38.80;;
29938;SDS011;16799;50.844;5.304;2023-11-21T06:15:07;104.90;;;32.50;;
29938;SDS011;16799;50.844;5.304;2023-11-21T06:17:35;118.90;;;35.33;;
29938;SDS011;16799;50.844;5.304;2023-11-21T06:20:04;135.50;;;36.67;;
29938;SDS011;16799;50.844;5.304;2023-11-21T06:22:39;130.63;;;38.40;;
29938;SDS011;16799;50.844;5.304;2023-11-21T06:25:09;92.47;;;32.80;;
29938;SDS011;16799;50.844;5.304;2023-11-21T06:27:37;148.03;;;36.07;;
29938;SDS011;16799;50.844;5.304;2023-11-21T06:30:08;98.07;;;32.97;;
29938;SDS011;16799;50.844;5.304;2023-11-21T06:32:37;118.07;;;34.10;;
29938;SDS011;16799;50.844;5.304;2023-11-21T06:35:05;97.97;;;34.57;;
29938;SDS011;16799;50.844;5.304;2023-11-21T06:37:32;113.83;;;32.60;;
29938;SDS011;16799;50.844;5.304;2023-11-21T06:39:58;114.83;;;36.03;;
29938;SDS011;16799;50.844;5.304;2023-11-21T06:42:25;124.80;;;34.27;;
29938;SDS011;16799;50.844;5.304;2023-11-21T06:44:51;118.00;;;35.37;;
29938;SDS011;16799;50.844;5.304;2023-11-21T06:47:18;146.83;;;35.77;;
29938;SDS011;16799;50.844;5.304;2023-11-21T06:49:49;148.10;;;35.60;;
29938;SDS011;16799;50.844;5.304;2023-11-21T06:52:15;111.70;;;36.50;;
29938;SDS011;16799;50.844;5.304;2023-11-21T06:54:41;124.83;;;33.20;;
29938;SDS011;16799;50.844;5.304;2023-11-21T06:57:07;112.43;;;34.00;;
29938;SDS011;16799;50.844;5.304;2023-11-21T06:59:33;105.10;;;34.23;;
29938;SDS011;16799;50.844;5.304;2023-11-21T07:01:59;105.53;;;35.87;;
29938;SDS011;16799;50.844;5.304;2023-11-21T07:04:24;106.73;;;35.93;;
29938;SDS011;16799;50.844;5.304;2023-11-21T07:06:53;92.07;;;32.47;;
29938;SDS011;16799;50.844;5.304;2023-11-21T07:09:19;109.83;;;31.17;;
29938;SDS011;16799;50.844;5.304;2023-11-21T07:11:48;149.40;;;41.40;;
29938;SDS011;16799;50.844;5.304;2023-11-21T07:14:14;140.33;;;35.47;;
29938;SDS011;16799;50.844;5.304;2023-11-21T07:16:42;147.73;;;36.80;;
29938;SDS011;16799;50.844;5.304;2023-11-21T07:19:07;173.80;;;39.20;;
29938;SDS011;16799;50.844;5.304;2023-11-21T07:21:33;108.63;;;31.43;;
29938;SDS011;16799;50.844;5.304;2023-11-21T07:24:00;153.27;;;41.90;;
29938;SDS011;16799;50.844;5.304;2023-11-21T07:26:26;127.03;;;36.43;;
29938;SDS011;16799;50.844;5.304;2023-11-21T07:28:52;153.33;;;38.27;;
29938;SDS011;16799;50.844;5.304;2023-11-21T07:31:18;143.37;;;37.23;;
29938;SDS011;16799;50.844;5.304;2023-11-21T07:33:44;180.53;;;41.17;;
29938;SDS011;16799;50.844;5.304;2023-11-21T07:36:12;144.07;;;40.90;;
29938;SDS011;16799;50.844;5.304;2023-11-21T07:38:41;151.00;;;38.77;;
29938;SDS011;16799;50.844;5.304;2023-11-21T07:41:07;100.37;;;33.80;;
29938;SDS011;16799;50.844;5.304;2023-11-21T07:43:34;97.47;;;35.10;;
29938;SDS011;16799;50.844;5.304;2023-11-21T07:46:03;107.93;;;34.60;;
29938;SDS011;16799;50.844;5.304;2023-11-21T07:48:30;92.27;;;31.70;;
29938;SDS011;16799;50.844;5.304;2023-11-21T07:50:56;92.87;;;32.77;;
29938;SDS011;16799;50.844;5.304;2023-11-21T07:53:25;80.57;;;28.17;;
29938;SDS011;16799;50.844;5.304;2023-11-21T07:55:54;76.93;;;30.27;;
29938;SDS011;16799;50.844;5.304;2023-11-21T07:58:20;85.67;;;29.97;;
29938;SDS011;16799;50.844;5.304;2023-11-21T08:00:45;91.10;;;32.60;;
29938;SDS011;16799;50.844;5.304;2023-11-21T08:03:13;82.67;;;27.40;;
29938;SDS011;16799;50.844;5.304;2023-11-21T08:05:39;129.43;;;31.20;;
29938;SDS011;16799;50.844;5.304;2023-11-21T08:08:05;84.47;;;30.07;;
29938;SDS011;16799;50.844;5.304;2023-11-21T08:10:30;87.13;;;31.13;;
29938;SDS011;16799;50.844;5.304;2023-11-21T08:12:56;71.30;;;27.00;;
29938;SDS011;16799;50.844;5.304;2023-11-21T08:15:22;86.10;;;32.47;;
29938;SDS011;16799;50.844;5.304;2023-11-21T08:17:47;94.53;;;30.83;;
29938;SDS011;16799;50.844;5.304;2023-11-21T08:20:13;76.00;;;29.90;;
29938;SDS011;16799;50.844;5.304;2023-11-21T08:22:41;80.30;;;27.23;;
29938;SDS011;16799;50.844;5.304;2023-11-21T08:25:09;81.43;;;30.70;;
29938;SDS011;16799;50.844;5.304;2023-11-21T08:27:35;81.53;;;27.97;;
29938;SDS011;16799;50.844;5.304;2023-11-21T08:30:02;74.37;;;28.60;;
29938;SDS011;16799;50.844;5.304;2023-11-21T08:32:28;65.97;;;28.70;;
29938;SDS011;16799;50.844;5.304;2023-11-21T08:34:57;78.33;;;28.87;;
29938;SDS011;16799;50.844;5.304;2023-11-21T08:37:23;77.20;;;28.97;;
29938;SDS011;16799;50.844;5.304;2023-11-21T08:39:49;66.10;;;27.73;;
29938;SDS011;16799;50.844;5.304;2023-11-21T08:42:14;78.33;;;30.00;;
29938;SDS011;16799;50.844;5.304;2023-11-21T08:44:40;85.30;;;30.83;;
29938;SDS011;16799;50.844;5.304;2023-11-21T08:47:06;68.93;;;27.37;;
29938;SDS011;16799;50.844;5.304;2023-11-21T08:49:32;81.63;;;28.33;;
29938;SDS011;16799;50.844;5.304;2023-11-21T08:51:58;60.80;;;28.00;;
29938;SDS011;16799;50.844;5.304;2023-11-21T08:54:26;64.77;;;27.43;;
29938;SDS011;16799;50.844;5.304;2023-11-21T08:56:53;70.10;;;30.67;;
29938;SDS011;16799;50.844;5.304;2023-11-21T08:59:19;69.07;;;26.83;;
29938;SDS011;16799;50.844;5.304;2023-11-21T09:01:46;73.60;;;28.43;;
29938;SDS011;16799;50.844;5.304;2023-11-21T09:04:12;71.23;;;28.73;;
29938;SDS011;16799;50.844;5.304;2023-11-21T09:06:38;74.90;;;29.27;;
29938;SDS011;16799;50.844;5.304;2023-11-21T09:09:04;57.47;;;26.70;;
29938;SDS011;16799;50.844;5.304;2023-11-21T09:11:31;72.53;;;27.73;;
29938;SDS011;16799;50.844;5.304;2023-11-21T09:13:59;66.23;;;27.40;;
29938;SDS011;16799;50.844;5.304;2023-11-21T09:16:25;87.00;;;29.10;;
29938;SDS011;16799;50.844;5.304;2023-11-21T09:18:51;64.07;;;27.30;;
29938;SDS011;16799;50.844;5.304;2023-11-21T09:21:17;65.30;;;25.87;;
29938;SDS011;16799;50.844;5.304;2023-11-21T09:23:44;62.70;;;27.07;;
29938;SDS011;16799;50.844;5.304;2023-11-21T09:26:10;57.57;;;26.03;;
29938;SDS011;16799;50.844;5.304;2023-11-21T09:28:35;56.47;;;26.90;;
29938;SDS011;16799;50.844;5.304;2023-11-21T09:31:03;61.57;;;26.77;;
29938;SDS011;16799;50.844;5.304;2023-11-21T09:33:34;63.67;;;27.93;;
29938;SDS011;16799;50.844;5.304;2023-11-21T09:36:00;55.70;;;24.07;;
29938;SDS011;16799;50.844;5.304;2023-11-21T09:38:26;58.10;;;24.60;;
29938;SDS011;16799;50.844;5.304;2023-11-21T09:40:53;48.50;;;23.00;;
29938;SDS011;16799;50.844;5.304;2023-11-21T09:43:20;47.60;;;22.63;;
29938;SDS011;16799;50.844;5.304;2023-11-21T09:45:47;55.70;;;25.57;;
29938;SDS011;16799;50.844;5.304;2023-11-21T09:48:18;51.23;;;21.37;;
29938;SDS011;16799;50.844;5.304;2023-11-21T09:50:45;41.90;;;20.00;;
29938;SDS011;16799;50.844;5.304;2023-11-21T09:53:13;52.57;;;21.53;;
29938;SDS011;16799;50.844;5.304;2023-11-21T09:55:43;47.57;;;21.40;;
29938;SDS011;16799;50.844;5.304;2023-11-21T09:58:10;40.20;;;22.47;;
29938;SDS011;16799;50.844;5.304;2023-11-21T10:00:45;41.90;;;20.57;;
29938;SDS011;16799;50.844;5.304;2023-11-21T10:03:12;52.70;;;19.67;;
29938;SDS011;16799;50.844;5.304;2023-11-21T10:05:39;47.63;;;19.90;;
29938;SDS011;16799;50.844;5.304;2023-11-21T10:08:07;41.90;;;19.57;;
29938;SDS011;16799;50.844;5.304;2023-11-21T10:10:35;41.47;;;21.43;;
29938;SDS011;16799;50.844;5.304;2023-11-21T10:13:03;43.63;;;19.73;;
29938;SDS011;16799;50.844;5.304;2023-11-21T10:15:32;42.10;;;18.43;;
29938;SDS011;16799;50.844;5.304;2023-11-21T10:18:03;40.30;;;18.57;;
29938;SDS011;16799;50.844;5.304;2023-11-21T10:20:29;39.00;;;19.17;;
29938;SDS011;16799;50.844;5.304;2023-11-21T10:22:56;42.90;;;19.17;;
29938;SDS011;16799;50.844;5.304;2023-11-21T10:25:22;49.97;;;23.13;;
29938;SDS011;16799;50.844;5.304;2023-11-21T10:27:48;47.63;;;21.87;;
29938;SDS011;16799;50.844;5.304;2023-11-21T10:30:17;38.17;;;19.13;;
29938;SDS011;16799;50.844;5.304;2023-11-21T10:32:43;48.30;;;22.60;;
29938;SDS011;16799;50.844;5.304;2023-11-21T10:35:09;53.37;;;20.30;;
29938;SDS011;16799;50.844;5.304;2023-11-21T10:37:39;52.90;;;20.10;;
29938;SDS011;16799;50.844;5.304;2023-11-21T10:40:06;50.00;;;20.03;;
29938;SDS011;16799;50.844;5.304;2023-11-21T10:42:33;39.63;;;19.87;;
29938;SDS011;16799;50.844;5.304;2023-11-21T10:44:58;41.87;;;21.20;;
29938;SDS011;16799;50.844;5.304;2023-11-21T10:47:25;41.27;;;19.73;;
29938;SDS011;16799;50.844;5.304;2023-11-21T10:49:51;43.57;;;20.03;;
29938;SDS011;16799;50.844;5.304;2023-11-21T10:52:19;53.63;;;20.97;;
29938;SDS011;16799;50.844;5.304;2023-11-21T10:54:45;42.00;;;19.37;;
29938;SDS011;16799;50.844;5.304;2023-11-21T10:57:12;47.60;;;22.80;;
29938;SDS011;16799;50.844;5.304;2023-11-21T10:59:41;48.87;;;20.67;;
29938;SDS011;16799;50.844;5.304;2023-11-21T11:02:16;41.50;;;20.20;;
29938;SDS011;16799;50.844;5.304;2023-11-21T11:04:56;46.73;;;19.20;;
29938;SDS011;16799;50.844;5.304;2023-11-21T11:07:25;48.43;;;21.60;;
29938;SDS011;16799;50.844;5.304;2023-11-21T11:09:55;55.47;;;22.83;;
29938;SDS011;16799;50.844;5.304;2023-11-21T11:12:23;52.80;;;23.90;;
29938;SDS011;16799;50.844;5.304;2023-11-21T11:14:49;51.17;;;22.23;;
29938;SDS011;16799;50.844;5.304;2023-11-21T11:17:16;46.23;;;19.47;;
29938;SDS011;16799;50.844;5.304;2023-11-21T11:19:45;57.43;;;23.03;;
29938;SDS011;16799;50.844;5.304;2023-11-21T11:22:34;44.60;;;22.00;;
29938;SDS011;16799;50.844;5.304;2023-11-21T11:34:15;37.23;;;18.23;;
29938;SDS011;16799;50.844;5.304;2023-11-21T11:36:22;36.70;;;18.33;;
29938;SDS011;16799;50.844;5.304;2023-11-21T11:38:53;35.60;;;17.80;;
29938;SDS011;16799;50.844;5.304;2023-11-21T11:41:24;39.20;;;18.60;;
29938;SDS011;16799;50.844;5.304;2023-11-21T11:43:52;32.60;;;16.63;;
29938;SDS011;16799;50.844;5.304;2023-11-21T11:46:18;39.87;;;19.47;;
29938;SDS011;16799;50.844;5.304;2023-11-21T11:48:46;50.83;;;21.10;;
29938;SDS011;16799;50.844;5.304;2023-11-21T11:51:14;39.33;;;20.53;;
29938;SDS011;16799;50.844;5.304;2023-11-21T11:53:42;38.80;;;19.60;;
29938;SDS011;16799;50.844;5.304;2023-11-21T11:58:50;45.03;;;20.70;;
29938;SDS011;16799;50.844;5.304;2023-11-21T12:01:18;42.60;;;20.50;;
29938;SDS011;16799;50.844;5.304;2023-11-21T12:03:44;42.63;;;22.50;;
29938;SDS011;16799;50.844;5.304;2023-11-21T12:06:33;43.20;;;21.53;;
29938;SDS011;16799;50.844;5.304;2023-11-21T12:09:03;40.23;;;18.83;;
29938;SDS011;16799;50.844;5.304;2023-11-21T12:11:31;38.20;;;19.90;;
29938;SDS011;16799;50.844;5.304;2023-11-21T12:13:58;53.80;;;22.37;;
29938;SDS011;16799;50.844;5.304;2023-11-21T12:16:25;46.53;;;22.00;;
29938;SDS011;16799;50.844;5.304;2023-11-21T12:18:52;46.53;;;21.87;;
29938;SDS011;16799;50.844;5.304;2023-11-21T12:21:19;63.37;;;24.80;;
29938;SDS011;16799;50.844;5.304;2023-11-21T12:23:48;51.60;;;25.80;;
29938;SDS011;16799;50.844;5.304;2023-11-21T12:26:14;61.73;;;24.07;;
29938;SDS011;16799;50.844;5.304;2023-11-21T12:28:39;64.27;;;25.43;;
29938;SDS011;16799;50.844;5.304;2023-11-21T12:31:05;57.27;;;26.50;;
29938;SDS011;16799;50.844;5.304;2023-11-21T12:33:34;61.37;;;25.90;;
29938;SDS011;16799;50.844;5.304;2023-11-21T12:36:00;51.20;;;22.90;;
29938;SDS011;16799;50.844;5.304;2023-11-21T12:38:33;59.67;;;25.37;;
29938;SDS011;16799;50.844;5.304;2023-11-21T12:41:00;52.30;;;22.80;;
29938;SDS011;16799;50.844;5.304;2023-11-21T12:43:25;78.23;;;30.10;;
29938;SDS011;16799;50.844;5.304;2023-11-21T12:45:51;62.87;;;25.67;;
29938;SDS011;16799;50.844;5.304;2023-11-21T12:48:43;57.87;;;25.00;;
29938;SDS011;16799;50.844;5.304;2023-11-21T12:51:10;54.20;;;25.33;;
29938;SDS011;16799;50.844;5.304;2023-11-21T12:53:37;58.67;;;25.27;;
29938;SDS011;16799;50.844;5.304;2023-11-21T12:56:07;44.60;;;23.40;;
29938;SDS011;16799;50.844;5.304;2023-11-21T12:58:37;51.93;;;22.90;;
29938;SDS011;16799;50.844;5.304;2023-11-21T13:01:04;49.87;;;24.87;;
29938;SDS011;16799;50.844;5.304;2023-11-21T13:03:36;44.93;;;20.63;;
29938;SDS011;16799;50.844;5.304;2023-11-21T13:06:06;41.53;;;21.60;;
29938;SDS011;16799;50.844;5.304;2023-11-21T13:08:35;35.77;;;20.87;;
29938;SDS011;16799;50.844;5.304;2023-11-21T13:11:04;40.70;;;20.90;;
29938;SDS011;16799;50.844;5.304;2023-11-21T13:13:31;39.57;;;21.20;;
29938;SDS011;16799;50.844;5.304;2023-11-21T13:15:59;46.93;;;24.50;;
29938;SDS011;16799;50.844;5.304;2023-11-21T13:18:26;42.83;;;22.97;;
29938;SDS011;16799;50.844;5.304;2023-11-21T13:20:56;43.33;;;21.90;;
29938;SDS011;16799;50.844;5.304;2023-11-21T13:23:23;52.30;;;23.43;;
29938;SDS011;16799;50.844;5.304;2023-11-21T13:25:50;44.70;;;20.17;;
29938;SDS011;16799;50.844;5.304;2023-11-21T13:28:16;40.57;;;22.30;;
29938;SDS011;16799;50.844;5.304;2023-11-21T13:30:43;49.17;;;22.90;;
29938;SDS011;16799;50.844;5.304;2023-11-21T13:33:10;36.30;;;19.73;;
29938;SDS011;16799;50.844;5.304;2023-11-21T13:35:38;37.80;;;21.37;;
29938;SDS011;16799;50.844;5.304;2023-11-21T13:38:09;45.37;;;23.77;;
29938;SDS011;16799;50.844;5.304;2023-11-21T13:40:36;48.30;;;24.13;;
29938;SDS011;16799;50.844;5.304;2023-11-21T13:43:09;48.27;;;24.73;;
29938;SDS011;16799;50.844;5.304;2023-11-21T13:45:37;51.23;;;24.70;;
29938;SDS011;16799;50.844;5.304;2023-11-21T13:48:04;43.10;;;22.73;;
29938;SDS011;16799;50.844;5.304;2023-11-21T13:50:35;46.20;;;22.97;;
29938;SDS011;16799;50.844;5.304;2023-11-21T13:53:04;47.10;;;24.07;;
29938;SDS011;16799;50.844;5.304;2023-11-21T13:55:44;47.30;;;25.27;;
29938;SDS011;16799;50.844;5.304;2023-11-21T13:58:10;46.73;;;24.47;;
29938;SDS011;16799;50.844;5.304;2023-11-21T14:00:42;55.03;;;25.00;;
29938;SDS011;16799;50.844;5.304;2023-11-21T14:03:12;47.53;;;24.87;;
29938;SDS011;16799;50.844;5.304;2023-11-21T14:05:46;53.30;;;23.73;;
29938;SDS011;16799;50.844;5.304;2023-11-21T14:08:16;48.87;;;23.03;;
29938;SDS011;16799;50.844;5.304;2023-11-21T14:10:49;57.43;;;24.73;;
29938;SDS011;16799;50.844;5.304;2023-11-21T14:13:18;52.03;;;26.50;;
29938;SDS011;16799;50.844;5.304;2023-11-21T14:15:45;50.50;;;24.57;;
29938;SDS011;16799;50.844;5.304;2023-11-21T14:18:15;52.97;;;24.97;;
29938;SDS011;16799;50.844;5.304;2023-11-21T14:20:42;51.73;;;25.03;;
29938;SDS011;16799;50.844;5.304;2023-11-21T14:23:09;43.93;;;22.73;;
29938;SDS011;16799;50.844;5.304;2023-11-21T14:25:35;52.37;;;25.60;;
29938;SDS011;16799;50.844;5.304;2023-11-21T14:28:02;49.93;;;23.43;;
29938;SDS011;16799;50.844;5.304;2023-11-21T14:30:31;39.33;;;21.80;;
29938;SDS011;16799;50.844;5.304;2023-11-21T14:32:58;37.27;;;20.83;;
29938;SDS011;16799;50.844;5.304;2023-11-21T14:35:24;35.93;;;21.20;;
29938;SDS011;16799;50.844;5.304;2023-11-21T14:37:51;46.73;;;18.83;;
29938;SDS011;16799;50.844;5.304;2023-11-21T14:40:17;38.87;;;19.77;;
29938;SDS011;16799;50.844;5.304;2023-11-21T14:42:47;38.77;;;18.53;;
29938;SDS011;16799;50.844;5.304;2023-11-21T14:45:13;47.43;;;19.67;;
29938;SDS011;16799;50.844;5.304;2023-11-21T14:47:44;36.23;;;19.37;;
29938;SDS011;16799;50.844;5.304;2023-11-21T14:50:16;34.80;;;19.80;;
29938;SDS011;16799;50.844;5.304;2023-11-21T14:53:08;34.60;;;19.20;;
29938;SDS011;16799;50.844;5.304;2023-11-21T14:55:36;41.13;;;20.27;;
29938;SDS011;16799;50.844;5.304;2023-11-21T14:58:04;43.50;;;21.00;;